Steptoe Valley WMA, Nevada Weather observations

Data are for 10 minute period ending at time listed.
 Day   Time   Solar   Ave.   Ave.  Ave.  Vector  Max.   Baro.   Total    
  of    of     Rad.   Air    Rel.  Wind   Wind   Wind  Press.  Precip.   
Year   Day            Temp.  Hum.  Speed  Dir.   Gust                    
2014   (PST)  Kw/m2    F      %     mph   deg.    mph    mb.     in.     
-------------------------------------------------------------------------
 293    5:50   0.00   35.3    81    6.9   185     9.1   803.5    0.00 
 293    6:00   0.01   35.8    79    5.3   188     7.7   803.5    0.00 
 293    6:10   0.01   35.2    80    5.4   183     7.4   803.5    0.00 
 293    6:20   0.01   35.8    79    8.0   185    10.9   803.6    0.00 
 293    6:30   0.02   36.3    78    7.6   181     9.9   803.7    0.00 
 293    6:40   0.02   36.5    78    5.3   176     8.2   803.8    0.00 
 293    6:50   0.07   37.7    78    5.0   180     8.0   803.8    0.00 
 293    7:00   0.16   40.6    72    6.6   189     9.6   803.8    0.00 
 293    7:10   0.19   41.8    69    6.5   180     9.3   803.9    0.00 
 293    7:20   0.22   44.3    65    6.5   185     9.3   804.0    0.00 
 293    7:30   0.25   46.1    62    7.1   190    10.2   804.0    0.00 
 293    7:40   0.28   47.9    58    7.3   180    10.4   804.0    0.00 
 293    7:50   0.31   49.8    55    7.3   182     9.5   804.0    0.00 
 293    8:00   0.34   51.3    52    7.1   179     9.3   803.9    0.00 
 293    8:10   0.37   54.0    49    6.1   184     8.3   803.8    0.00 
 293    8:20   0.40   56.9    46    5.7   185     8.0   803.7    0.00 
 293    8:30   0.43   60.6    38    8.1   174    13.1   803.5    0.00 
 293    8:40   0.45   63.3    33    8.9   164    14.3   803.3    0.00 
 293    8:50   0.48   64.4    31   10.6   156    15.4   803.2    0.00 
 293    9:00   0.50   65.4    28   10.5   158    15.7   803.1    0.00 
 293    9:10   0.52   65.8    27   12.5   159    19.0   803.1    0.00 
 293    9:20   0.55   66.7    27   11.2   158    17.4   803.2    0.00 
 293    9:30   0.56   67.1    26   12.5   159    18.6   803.2    0.00 
 293    9:40   0.58   67.2    27   13.7   164    19.4   803.3    0.00 
 293    9:50   0.60   67.6    26   13.2   164    21.0   803.3    0.00 
 293   10:00   0.63   68.2    26   13.5   161    19.4   803.2    0.00 
 293   10:10   0.66   68.4    26   11.2   175    18.3   803.1    0.00 
 293   10:20   0.54   68.2    26   12.1   180    18.0   803.1    0.00 
 293   10:30   0.36   66.8    27   11.3   194    22.9   803.1    0.00 
 293   10:40   0.42   66.4    28   11.0   200    20.8   803.0    0.00 
 293   10:50   0.56   67.6    27   12.7   195    21.7   802.8    0.00 
 293   11:00   0.72   69.4    26   12.1   211    17.8   802.8    0.00 
 293   11:10   0.72   69.9    25   10.9   205    18.9   802.7    0.00 
 293   11:20   0.71   70.2    26   11.0   199    18.6   802.5    0.00 
 293   11:30   0.70   70.2    25   10.6   187    22.4   802.4    0.00 
 293   11:40   0.69   69.9    26   12.2   193    19.2   802.2    0.00 
 293   11:50   0.69   69.9    26   10.3   186    20.6   802.1    0.00 
 293   12:00   0.69   69.7    25   13.3   200    20.5   802.0    0.00 
 293   12:10   0.71   69.5    25   10.3   183    21.5   801.9    0.00 
 293   12:20   0.67   70.0    25   10.4   192    18.8   801.8    0.00 
 293   12:30   0.58   69.4    26   10.1   186    18.3   801.7    0.00 
 293   12:40   0.74   71.1    24   10.3   189    15.9   801.6    0.00 
 293   12:50   0.60   71.4    24    9.0   189    17.8   801.6    0.00 
 293   13:00   0.50   68.9    26   10.7   191    15.9   801.6    0.00 
 293   13:10   0.66   70.8    24   11.1   178    21.4   801.5    0.00 
 293   13:20   0.66   71.2    24    9.2   194    17.3   801.5    0.00 
 293   13:30   0.64   71.1    24   11.5   180    19.6   801.4    0.00 
 293   13:40   0.59   70.8    24   12.8   169    19.8   801.3    0.00 
 293   13:50   0.56   70.7    24   13.1   169    21.2   801.2    0.00 
 293   14:00   0.52   70.4    24   10.8   188    16.9   801.2    0.00 
 293   14:10   0.49   70.2    24   10.8   208    16.6   801.2    0.00 
 293   14:20   0.52   70.7    24   12.0   191    20.2   801.1    0.00 
 293   14:30   0.32   69.0    25   12.6   163    17.2   801.1    0.00 
 293   14:40   0.47   69.5    25   12.5   162    21.4   801.0    0.00 
 293   14:50   0.43   69.6    25   14.1   170    20.5   800.8    0.00 
 293   15:00   0.37   69.3    26   12.5   174    22.6   800.8    0.00 
 293   15:10   0.39   70.1    24   12.4   175    19.9   800.8    0.00 
 293   15:20   0.31   69.5    24   10.4   198    18.4   800.8    0.00 
 293   15:30   0.26   68.6    24   10.6   192    16.6   800.7    0.00 
 293   15:40   0.24   68.4    25    8.9   210    14.5   800.6    0.00 
 293   15:50   0.22   67.8    25   11.9   187    18.9   800.5    0.00 
 293   16:00   0.18   67.3    26   11.1   184    17.0   800.4    0.00 
 293   16:10   0.12   66.2    26   11.8   177    20.4   800.3    0.00 
 293   16:20   0.09   65.2    27   12.6   175    18.4   800.2    0.00 
 293   16:30   0.05   64.3    28   11.1   174    16.7   800.2    0.00 
 293   16:40   0.02   62.6    30    8.2   177    12.8   800.2    0.00 
 293   16:50   0.01   61.8    30    7.8   167    11.6   800.1    0.00 
 293   17:00   0.00   61.0    30    6.0   161     9.8   800.1    0.00 
 293   17:10   0.00   59.5    31    5.9   150     8.7   800.0    0.00 
 293   17:20   0.00   59.2    31    6.6   145     8.4   799.9    0.00 
 293   17:30   0.00   58.2    33    5.4   156     7.9   799.9    0.00 
 293   17:40   0.00   58.0    33    7.4   140    11.0   799.9    0.00 
 293   17:50   0.00   58.2    33    8.9   136    11.2   799.9    0.00 
 293   18:00   0.00   57.7    34    6.5   142     8.9   800.0    0.00 
 293   18:10   0.00   56.6    36    5.1   162     7.6   800.1    0.00 
 293   18:20   0.00   55.8    38    5.7   162     9.5   800.0    0.00 
 293   18:30   0.00   57.6    36    8.5   148    11.5   800.0    0.00 
 293   18:40   0.00   58.1    35    8.8   146    12.3   800.0    0.00 
 293   18:50   0.00   57.7    36    9.0   141    13.5   800.0    0.00 
 293   19:00   0.00   57.4    37    9.4   140    14.1   800.0    0.00 
 293   19:10   0.00   56.8    38    9.5   141    14.0   800.0    0.00 
 293   19:20   0.00   56.6    39   10.5   146    15.1   800.0    0.00 
 293   19:30   0.00   56.3    39   10.4   138    15.4   800.0    0.00 
 293   19:40   0.00   55.3    40    9.3   141    12.6   799.9    0.00 
 293   19:50   0.00   55.5    41   10.5   146    15.3   799.9    0.00 
 293   20:00   0.00   55.4    41    9.5   148    15.5   799.9    0.00 
 293   20:10   0.00   55.6    41   10.4   145    14.6   799.8    0.00 
 293   20:20   0.00   56.0    41   11.3   149    17.7   799.9    0.00 
 293   20:30   0.00   55.7    41   11.8   148    18.6   799.9    0.00 
 293   20:40   0.00   55.3    42   11.3   146    16.8   800.0    0.00 
 293   20:50   0.00   55.0    43   10.3   147    15.1   800.0    0.00 
 293   21:00   0.00   54.9    43   10.1   144    15.5   800.0    0.00 
 293   21:10   0.00   54.8    43    9.8   146    14.4   800.1    0.00 
 293   21:20   0.00   55.2    44   10.6   154    15.3   800.0    0.00 
 293   21:30   0.00   55.6    43   11.9   148    16.2   800.1    0.00 
 293   21:40   0.00   55.7    43   12.2   148    16.5   800.0    0.00 
 293   21:50   0.00   55.2    44   11.0   142    15.3   800.0    0.00 
 293   22:00   0.00   54.6    45   10.8   141    17.4   800.1    0.00 
 293   22:10   0.00   54.0    46   10.0   140    14.2   800.0    0.00 
 293   22:20   0.00   53.7    46   10.1   143    16.4   800.0    0.00 
 293   22:30   0.00   53.7    47    9.8   143    14.1   799.9    0.00 
 293   22:40   0.00   54.0    46    9.4   142    13.0   800.0    0.00 
 293   22:50   0.00   54.1    46    8.4   145    13.4   800.1    0.00 
 293   23:00   0.00   53.7    47    8.4   143    11.6   800.0    0.00 
 293   23:10   0.00   53.5    48    7.1   140    10.2   800.0    0.00 
 293   23:20   0.00   53.4    48    7.1   143    10.2   800.0    0.00 
 293   23:30   0.00   53.5    48    8.2   137    12.9   800.0    0.00 
 293   23:40   0.00   53.4    48    7.2   135    12.2   800.0    0.00 
 293   23:50   0.00   52.1    50    6.5   129    10.0   800.0    0.00 
 294    0:00   0.00   51.7    51    7.2   118    10.2   800.0    0.00 
 294    0:10   0.00   52.0    51    7.5   120     9.9   800.1    0.00 
 294    0:20   0.00   52.3    51    8.3   122    12.1   800.0    0.00 
 294    0:30   0.00   52.2    52    9.6   126    14.4   799.7    0.00 
 294    0:40   0.00   52.6    51   10.7   135    16.6   799.5    0.00 
 294    0:50   0.00   52.5    52   11.8   135    17.0   799.4    0.00 
 294    1:00   0.00   52.4    52   13.0   135    18.4   799.2    0.00 
 294    1:10   0.00   52.4    52   12.6   140    16.7   799.2    0.00 
 294    1:20   0.00   52.3    53   12.1   138    17.5   799.3    0.00 
 294    1:30   0.00   52.5    52   12.4   137    17.2   799.3    0.00 
 294    1:40   0.00   50.7    54    9.8   176    18.0   799.4    0.00 
 294    1:50   0.00   46.4    63    7.8   180    13.7   799.3    0.00 
 294    2:00   0.00   46.8    63    8.2   170    12.7   799.5    0.00 
 294    2:10   0.00   49.3    58    8.8   157    14.8   799.6    0.00 
 294    2:20   0.00   51.2    52    9.7   146    15.9   799.6    0.00 
 294    2:30   0.00   51.9    50   11.7   141    19.4   799.5    0.00 
 294    2:40   0.00   53.5    47   13.4   140    21.6   799.3    0.00 
 294    2:50   0.00   53.2    47   12.3   139    19.5   799.2    0.00 
 294    3:00   0.00   53.3    47   12.8   134    21.0   799.3    0.00 
 294    3:10   0.00   52.9    47    9.4   135    16.4   799.5    0.00 
 294    3:20   0.00   52.6    48    9.0   131    14.1   799.8    0.00 
 294    3:30   0.00   52.2    48    7.9   140    14.7   799.8    0.00 
 294    3:40   0.00   52.0    49    7.6   149    13.8   799.9    0.00 
 294    3:50   0.00   51.0    50    5.0   165    10.4   800.1    0.00 
 294    4:00   0.00   52.2    48    7.8   155    17.5   799.9    0.00 
 294    4:10   0.00   52.2    47    8.0   141    12.3   800.0    0.00 
 294    4:20   0.00   51.6    48    5.5   147    10.7   800.2    0.00 
 294    4:30   0.00   51.9    48    7.9   136    13.4   800.2    0.00 
 294    4:40   0.00   51.8    49    8.5   139    17.1   800.3    0.00 
 294    4:50   0.00   51.2    50    7.2   141    11.3   800.4    0.00 
 294    5:00   0.00   50.7    51    7.1   136    12.2   800.5    0.00 
 294    5:10   0.00   51.2    50    8.1   138    12.1   800.6    0.00 
 294    5:20   0.00   50.8    51    8.0   145    11.0   800.6    0.00 
 294    5:30   0.00   51.1    50    7.8   153    12.1   800.6    0.00 
 294    5:40   0.00   51.2    50    8.3   152    12.9   800.7    0.00 

Return to Steptoe Valley WMA graphs page.


Western Regional Climate Center,wrcc@dri.edu